TimeMST,TemperatureF,Dew PointF,Humidity,Sea Level PressureIn,VisibilityMPH,Wind Direction,Wind SpeedMPH,Gust SpeedMPH,PrecipitationIn,Events,Conditions,WindDirDegrees,DateUTC
12:53 AM,17.1,9.0,71,30.27,4.0,West,16.1,-,0.00,Snow,Light Snow,280,2013-01-02 07:53:00
1:04 AM,17.6,10.4,73,30.09,2.5,West,16.1,-,0.00,Snow,Light Snow,270,2013-01-02 08:04:00
1:11 AM,15.8,10.4,79,30.09,4.0,West,15.0,-,0.00,Snow,Light Snow,270,2013-01-02 08:11:00
1:53 AM,18.0,12.9,81,30.27,8.0,West,13.8,-,0.00,Snow,Light Snow,270,2013-01-02 08:53:00
2:05 AM,17.6,12.2,79,30.10,2.5,West,13.8,-,0.00,Snow,Light Snow,280,2013-01-02 09:05:00
2:20 AM,19.4,12.2,74,30.10,3.0,West,13.8,-,0.00,Snow,Light Snow,270,2013-01-02 09:20:00
2:33 AM,17.6,12.2,79,30.11,3.0,West,12.7,-,0.00,Snow,Light Snow,270,2013-01-02 09:33:00
2:53 AM,19.0,14.0,81,30.27,7.0,West,12.7,-,0.00,Snow,Light Snow,270,2013-01-02 09:53:00
3:53 AM,19.9,14.0,78,30.26,10.0,West,13.8,-,0.00,,Overcast,280,2013-01-02 10:53:00
5:12 AM,21.2,17.6,86,30.10,1.2,NW,18.4,-,0.00,Snow,Light Snow,310,2013-01-02 12:12:00
5:23 AM,21.2,17.6,86,30.10,1.0,NW,17.3,-,0.00,Snow,Light Snow,310,2013-01-02 12:23:00
5:31 AM,21.2,17.6,86,30.11,1.0,NW,20.7,-,0.00,Snow,Light Snow,310,2013-01-02 12:31:00
5:46 AM,21.2,17.6,86,30.11,1.5,NW,18.4,-,0.00,Snow,Light Snow,310,2013-01-02 12:46:00
5:51 AM,21.2,17.6,86,30.11,2.0,NW,16.1,-,0.00,Snow,Light Snow,310,2013-01-02 12:51:00
5:53 AM,21.9,17.1,82,30.27,2.5,NW,16.1,-,0.00,Snow,Light Snow,310,2013-01-02 12:53:00
6:02 AM,23.0,15.8,74,30.12,3.0,NW,16.1,-,0.00,Snow,Light Snow,310,2013-01-02 13:02:00
6:17 AM,21.2,15.8,80,30.12,9.0,NW,16.1,-,0.00,,Overcast,320,2013-01-02 13:17:00
6:53 AM,21.9,12.9,68,30.30,10.0,NW,17.3,-,0.00,,Overcast,320,2013-01-02 13:53:00
7:53 AM,23.0,14.0,68,30.31,5.0,NW,16.1,-,0.00,Snow,Light Snow,310,2013-01-02 14:53:00
8:13 AM,23.0,14.0,68,30.15,4.0,NW,13.8,-,0.00,Snow,Light Snow,310,2013-01-02 15:13:00
8:31 AM,23.0,15.8,74,30.16,1.8,WNW,13.8,-,0.00,Snow,Light Snow,300,2013-01-02 15:31:00
8:35 AM,21.2,15.8,80,30.16,1.0,WNW,13.8,-,0.00,Snow,Light Snow,300,2013-01-02 15:35:00
8:46 AM,21.2,15.8,80,30.16,3.0,WNW,11.5,-,0.00,Snow,Light Snow,290,2013-01-02 15:46:00
8:53 AM,23.0,15.1,72,30.32,9.0,WNW,10.4,-,0.00,,Overcast,290,2013-01-02 15:53:00
9:05 AM,21.2,15.8,80,30.16,10.0,West,11.5,-,N/A,,Overcast,280,2013-01-02 16:05:00
9:53 AM,24.1,15.1,69,30.32,10.0,WNW,12.7,-,N/A,,Overcast,290,2013-01-02 16:53:00
10:53 AM,25.0,15.1,66,30.33,10.0,NW,17.3,-,N/A,,Overcast,310,2013-01-02 17:53:00
11:53 AM,27.0,16.0,63,30.29,10.0,NW,15.0,-,N/A,,Overcast,320,2013-01-02 18:53:00
12:53 PM,28.0,16.0,61,30.25,10.0,NNW,16.1,-,N/A,,Mostly Cloudy,330,2013-01-02 19:53:00
1:53 PM,28.0,14.0,56,30.25,10.0,NNW,18.4,-,N/A,,Partly Cloudy,340,2013-01-02 20:53:00
2:53 PM,26.1,14.0,60,30.26,10.0,NW,8.1,-,N/A,,Clear,310,2013-01-02 21:53:00
3:53 PM,23.0,10.9,60,30.29,10.0,NW,11.5,-,N/A,,Clear,320,2013-01-02 22:53:00
4:53 PM,21.9,14.0,72,30.32,10.0,North,16.1,-,N/A,,Mostly Cloudy,350,2013-01-02 23:53:00
5:53 PM,18.0,10.9,74,30.33,10.0,NNW,8.1,-,N/A,,Mostly Cloudy,340,2013-01-03 00:53:00
6:53 PM,19.0,10.9,71,30.34,10.0,NW,5.8,-,N/A,,Mostly Cloudy,320,2013-01-03 01:53:00
7:53 PM,21.0,10.9,65,30.34,10.0,NW,13.8,-,N/A,,Overcast,310,2013-01-03 02:53:00
8:53 PM,19.0,10.0,68,30.37,10.0,NW,10.4,-,N/A,,Overcast,320,2013-01-03 03:53:00
9:53 PM,21.0,12.0,68,30.38,10.0,NW,11.5,-,N/A,,Overcast,320,2013-01-03 04:53:00
10:53 PM,19.9,12.9,74,30.40,10.0,NNW,13.8,-,N/A,,Overcast,330,2013-01-03 05:53:00